createdAt,value
2022-12-27T00:02:21.890Z,3.80
2022-12-27T00:04:48.376Z,3.80
2022-12-27T00:07:14.720Z,3.75
2022-12-27T00:09:41.259Z,5.45
2022-12-27T00:12:08.003Z,3.63
2022-12-27T00:14:34.484Z,3.70
2022-12-27T00:17:00.879Z,3.80
2022-12-27T00:19:27.334Z,3.92
2022-12-27T00:21:53.722Z,4.10
2022-12-27T00:24:20.141Z,3.65
2022-12-27T00:26:46.551Z,3.88
2022-12-27T00:29:12.991Z,3.67
2022-12-27T00:31:39.435Z,3.40
2022-12-27T00:34:07.344Z,3.90
2022-12-27T00:36:34.355Z,3.78
2022-12-27T00:39:01.327Z,3.38
2022-12-27T00:41:27.984Z,3.42
2022-12-27T00:43:54.393Z,3.55
2022-12-27T00:46:21.051Z,3.40
2022-12-27T00:48:47.542Z,3.70
2022-12-27T00:51:15.899Z,3.00
2022-12-27T00:53:42.572Z,3.40
2022-12-27T00:56:14.465Z,3.70
2022-12-27T00:58:41.254Z,3.80
2022-12-27T01:01:07.706Z,3.97
2022-12-27T01:03:34.185Z,3.60
2022-12-27T01:06:04.327Z,3.63
2022-12-27T01:08:30.740Z,3.78
2022-12-27T01:10:57.302Z,3.53
2022-12-27T01:13:23.724Z,4.05
2022-12-27T01:15:50.021Z,4.32
2022-12-27T01:18:16.410Z,4.40
2022-12-27T01:20:42.860Z,3.85
2022-12-27T01:23:09.199Z,4.53
2022-12-27T01:25:35.672Z,4.13
2022-12-27T01:28:02.399Z,3.50
2022-12-27T01:30:28.742Z,4.03
2022-12-27T01:32:55.165Z,3.95
2022-12-27T01:35:21.506Z,4.28
2022-12-27T01:37:47.965Z,4.57
2022-12-27T01:40:14.404Z,3.72
2022-12-27T01:42:52.885Z,4.13
2022-12-27T01:45:23.956Z,4.38
2022-12-27T01:47:53.203Z,4.45
2022-12-27T01:50:23.211Z,3.30
2022-12-27T01:53:08.216Z,4.00
2022-12-27T01:55:35.176Z,3.05
2022-12-27T01:58:21.850Z,3.08
2022-12-27T02:00:49.005Z,2.75
2022-12-27T02:03:18.032Z,2.38
2022-12-27T02:05:44.536Z,2.60
2022-12-27T02:08:18.493Z,3.42
2022-12-27T02:10:45.704Z,4.00
2022-12-27T02:13:12.183Z,4.55
2022-12-27T02:15:38.524Z,3.88
2022-12-27T02:18:05.049Z,4.05
2022-12-27T02:20:38.783Z,4.32
2022-12-27T02:23:39.206Z,4.35
2022-12-27T02:26:15.175Z,4.68
2022-12-27T02:28:59.886Z,4.10
2022-12-27T02:31:33.404Z,3.85
2022-12-27T02:34:00.440Z,4.20
2022-12-27T02:36:29.741Z,4.60
2022-12-27T02:38:58.078Z,4.25
2022-12-27T02:41:43.897Z,4.57
2022-12-27T02:44:28.758Z,4.60
2022-12-27T02:47:14.175Z,4.50
2022-12-27T02:50:00.981Z,5.10
2022-12-27T02:52:58.409Z,4.78
2022-12-27T02:55:43.191Z,5.00
2022-12-27T02:58:32.057Z,4.68
2022-12-27T03:01:20.538Z,3.85
2022-12-27T03:03:46.925Z,4.00
2022-12-27T03:06:40.179Z,3.35
2022-12-27T03:09:35.783Z,3.85
2022-12-27T03:12:24.359Z,3.45
2022-12-27T03:15:12.882Z,3.33
2022-12-27T03:17:48.095Z,2.83
2022-12-27T03:20:34.838Z,3.13
2022-12-27T03:23:20.698Z,3.00
2022-12-27T03:25:48.574Z,3.40
2022-12-27T03:28:39.473Z,2.90
2022-12-27T03:31:28.853Z,3.13
2022-12-27T03:34:04.561Z,3.53
2022-12-27T03:36:51.441Z,3.28
2022-12-27T03:39:34.667Z,3.80
2022-12-27T03:42:21.751Z,2.90
2022-12-27T03:44:48.581Z,3.25
2022-12-27T03:47:40.961Z,3.28
2022-12-27T03:50:21.545Z,3.42
2022-12-27T03:52:51.997Z,3.60
2022-12-27T03:55:21.311Z,3.58
2022-12-27T03:57:47.882Z,3.53
2022-12-27T04:00:17.206Z,3.22
2022-12-27T04:02:44.552Z,3.28
2022-12-27T04:05:11.267Z,3.33
2022-12-27T04:07:37.837Z,3.53
2022-12-27T04:10:22.757Z,3.33
2022-12-27T04:13:07.556Z,3.38
2022-12-27T04:15:52.495Z,2.90
2022-12-27T04:18:37.371Z,3.25
2022-12-27T04:21:22.396Z,2.85
2022-12-27T04:24:07.237Z,3.47
2022-12-27T04:26:51.977Z,3.20
2022-12-27T04:29:36.941Z,3.13
2022-12-27T04:32:22.040Z,2.92
2022-12-27T04:34:48.437Z,2.83
2022-12-27T04:37:16.452Z,3.58
2022-12-27T04:40:03.429Z,2.90
2022-12-27T04:42:48.142Z,3.10
2022-12-27T04:45:34.441Z,2.75
2022-12-27T04:48:19.496Z,2.95
2022-12-27T04:51:04.431Z,2.90
2022-12-27T04:53:49.524Z,2.83
2022-12-27T04:56:15.948Z,2.80
2022-12-27T04:59:02.293Z,3.08
2022-12-27T05:01:47.616Z,2.53
2022-12-27T05:04:14.256Z,2.90
2022-12-27T05:06:40.640Z,3.20
2022-12-27T05:09:25.950Z,2.88
2022-12-27T05:12:10.703Z,2.60
2022-12-27T05:14:37.133Z,2.83
2022-12-27T05:17:03.414Z,3.20
2022-12-27T05:19:31.017Z,2.70
2022-12-27T05:22:15.805Z,2.97
2022-12-27T05:25:00.707Z,2.78
2022-12-27T05:27:27.069Z,3.03
2022-12-27T05:29:53.598Z,3.55
2022-12-27T05:32:19.971Z,3.67
2022-12-27T05:34:46.331Z,3.60
2022-12-27T05:37:12.729Z,3.78
2022-12-27T05:39:39.106Z,3.75
2022-12-27T05:42:05.544Z,4.18
2022-12-27T05:44:31.951Z,3.80
2022-12-27T05:46:58.371Z,8.43
2022-12-27T05:49:24.749Z,5.75
2022-12-27T05:51:51.068Z,5.13
2022-12-27T05:54:17.358Z,6.78
2022-12-27T05:56:43.697Z,4.78
2022-12-27T05:59:10.127Z,7.55
2022-12-27T06:01:36.597Z,4.90
2022-12-27T06:04:03.038Z,3.92
2022-12-27T06:06:29.377Z,3.83
2022-12-27T06:08:55.666Z,3.60
2022-12-27T06:11:21.957Z,4.88
2022-12-27T06:13:49.658Z,4.13
2022-12-27T06:16:16.036Z,5.30
2022-12-27T06:18:42.927Z,5.43
2022-12-27T06:21:13.440Z,4.68
2022-12-27T06:23:40.671Z,4.90
2022-12-27T06:26:07.830Z,5.03
2022-12-27T06:28:34.250Z,4.28
2022-12-27T06:31:01.450Z,4.40
2022-12-27T06:33:27.790Z,4.82
2022-12-27T06:35:54.356Z,3.42
2022-12-27T06:38:20.700Z,4.63
2022-12-27T06:40:47.110Z,4.55
2022-12-27T06:43:13.448Z,5.35
2022-12-27T06:45:39.795Z,5.03
2022-12-27T06:48:06.348Z,4.93
2022-12-27T06:50:32.668Z,5.18
2022-12-27T06:52:59.064Z,4.13
2022-12-27T06:55:25.447Z,4.28
2022-12-27T06:57:51.789Z,4.40
2022-12-27T07:00:18.339Z,4.78
2022-12-27T07:02:44.800Z,4.20
2022-12-27T07:05:11.227Z,4.47
2022-12-27T07:07:37.584Z,4.45
2022-12-27T07:10:03.987Z,4.07
2022-12-27T07:12:34.803Z,4.20
2022-12-27T07:15:03.744Z,3.75
2022-12-27T07:17:30.050Z,4.80
2022-12-27T07:19:56.479Z,3.60
2022-12-27T07:22:22.778Z,3.80
2022-12-27T07:24:49.039Z,4.25
2022-12-27T07:27:15.433Z,4.07
2022-12-27T07:29:45.493Z,3.95
2022-12-27T07:32:12.195Z,3.97
2022-12-27T07:34:38.616Z,3.88
2022-12-27T07:37:05.203Z,4.10
2022-12-27T07:39:31.688Z,5.15
2022-12-27T07:42:01.857Z,4.55
2022-12-27T07:44:31.139Z,3.97
2022-12-27T07:46:57.666Z,3.80
2022-12-27T07:49:24.019Z,4.25
2022-12-27T07:51:50.401Z,4.53
2022-12-27T07:54:16.742Z,4.20
2022-12-27T07:56:43.069Z,4.05
2022-12-27T07:59:11.537Z,4.90
2022-12-27T08:01:56.433Z,5.47
2022-12-27T08:04:22.846Z,4.70
2022-12-27T08:06:49.327Z,5.45
2022-12-27T08:09:17.698Z,5.65
2022-12-27T08:11:43.973Z,5.10
2022-12-27T08:14:10.339Z,5.30
2022-12-27T08:16:39.839Z,4.75
2022-12-27T08:19:08.570Z,5.82
2022-12-27T08:21:35.094Z,4.97
2022-12-27T08:24:01.401Z,6.78
2022-12-27T08:26:27.895Z,5.95
2022-12-27T08:28:54.199Z,5.90
2022-12-27T08:31:20.676Z,5.68
2022-12-27T08:33:46.970Z,6.05
2022-12-27T08:36:45.202Z,6.57
2022-12-27T08:38:59.605Z,7.55
2022-12-27T08:41:26.091Z,6.28
2022-12-27T08:43:52.726Z,6.90
2022-12-27T08:46:19.544Z,6.38
2022-12-27T08:48:49.204Z,6.45
2022-12-27T08:51:24.809Z,6.57
2022-12-27T08:53:57.910Z,6.70
2022-12-27T08:56:24.759Z,6.53
2022-12-27T08:58:51.119Z,6.40
2022-12-27T09:01:17.680Z,6.63
2022-12-27T09:03:44.102Z,7.38
2022-12-27T09:06:18.285Z,6.40
2022-12-27T09:08:45.507Z,6.88
2022-12-27T09:11:12.980Z,7.40
2022-12-27T09:13:39.402Z,6.82
2022-12-27T09:16:07.160Z,8.30
2022-12-27T09:18:33.588Z,6.88
2022-12-27T09:21:04.237Z,7.95
2022-12-27T09:23:30.844Z,7.88
2022-12-27T09:25:57.355Z,7.38
2022-12-27T09:28:24.005Z,7.75
2022-12-27T09:30:50.656Z,7.18
2022-12-27T09:33:17.110Z,6.72
2022-12-27T09:35:44.511Z,6.78
2022-12-27T09:38:10.944Z,6.90
2022-12-27T09:40:37.336Z,7.30
2022-12-27T09:43:20.628Z,7.13
2022-12-27T09:45:52.225Z,6.88
2022-12-27T09:48:18.549Z,7.43
2022-12-27T09:50:59.664Z,8.18
2022-12-27T09:53:28.714Z,7.47
2022-12-27T09:55:57.396Z,7.18
2022-12-27T09:58:32.881Z,8.05
2022-12-27T10:00:59.432Z,7.88
2022-12-27T10:03:26.405Z,8.10
2022-12-27T10:06:05.168Z,7.80
2022-12-27T10:08:34.555Z,8.50
2022-12-27T10:11:36.146Z,7.80
2022-12-27T10:14:08.851Z,8.10
2022-12-27T10:16:50.032Z,6.75
2022-12-27T10:19:31.490Z,7.20
2022-12-27T10:22:07.089Z,7.70
2022-12-27T10:24:50.526Z,7.57
2022-12-27T10:27:22.705Z,7.78
2022-12-27T10:29:51.874Z,8.15
2022-12-27T10:32:18.238Z,6.90
2022-12-27T10:34:44.836Z,6.80
2022-12-27T10:37:15.849Z,7.13
2022-12-27T10:39:42.913Z,6.70
2022-12-27T10:42:25.082Z,7.05
2022-12-27T10:45:14.782Z,8.10
2022-12-27T10:47:41.169Z,7.03
2022-12-27T10:50:12.616Z,6.88
2022-12-27T10:52:39.005Z,6.47
2022-12-27T10:55:05.669Z,6.03
2022-12-27T10:57:34.814Z,6.20
2022-12-27T11:00:13.453Z,6.45
2022-12-27T11:03:00.893Z,6.57
2022-12-27T11:05:28.627Z,5.93
2022-12-27T11:07:55.076Z,5.70
2022-12-27T11:10:24.119Z,5.95
2022-12-27T11:12:57.140Z,6.20
2022-12-27T11:15:24.269Z,6.40
2022-12-27T11:17:53.875Z,6.70
2022-12-27T11:20:23.285Z,6.45
2022-12-27T11:22:52.848Z,6.30
2022-12-27T11:25:22.937Z,6.15
2022-12-27T11:27:50.957Z,6.93
2022-12-27T11:30:31.158Z,7.03
2022-12-27T11:33:03.263Z,5.68
2022-12-27T11:35:29.690Z,6.22
2022-12-27T11:37:56.427Z,6.93
2022-12-27T11:40:34.553Z,7.38
2022-12-27T11:43:07.765Z,7.15
2022-12-27T11:45:37.393Z,6.75
2022-12-27T11:48:06.727Z,6.55
2022-12-27T11:50:37.640Z,7.00
2022-12-27T11:55:48.967Z,6.70
2022-12-27T11:58:15.235Z,6.35
2022-12-27T12:01:05.632Z,6.28
2022-12-27T12:03:58.414Z,6.80
2022-12-27T12:06:43.539Z,7.88
2022-12-27T12:09:19.210Z,6.00
2022-12-27T12:12:04.388Z,5.78
2022-12-27T12:14:43.015Z,6.25
2022-12-27T12:17:32.445Z,6.07
2022-12-27T12:20:22.713Z,6.90
2022-12-27T12:22:49.005Z,5.25
2022-12-27T12:25:33.873Z,5.82
2022-12-27T12:31:37.991Z,4.45
2022-12-27T12:34:04.279Z,4.38
2022-12-27T12:36:30.585Z,4.85
2022-12-27T12:39:09.925Z,4.20
2022-12-27T12:41:48.742Z,3.90
2022-12-27T12:44:15.123Z,4.00
2022-12-27T12:46:45.704Z,4.10
2022-12-27T12:49:30.635Z,4.40
2022-12-27T12:52:00.011Z,4.18
2022-12-27T12:54:26.318Z,4.72
2022-12-27T12:56:52.615Z,5.40
2022-12-27T12:59:19.045Z,4.40
2022-12-27T13:01:57.954Z,5.20
2022-12-27T13:04:43.006Z,6.38
2022-12-27T13:07:18.678Z,5.18
2022-12-27T13:10:00.335Z,4.25
2022-12-27T13:12:26.594Z,5.35
2022-12-27T13:14:56.090Z,4.10
2022-12-27T13:17:28.230Z,4.28
2022-12-27T13:20:03.760Z,4.45
2022-12-27T13:22:48.982Z,3.95
2022-12-27T13:25:34.351Z,4.68
2022-12-27T13:28:22.642Z,4.15
2022-12-27T13:31:02.880Z,3.88
2022-12-27T13:33:35.360Z,3.85
2022-12-27T13:36:07.762Z,3.70
2022-12-27T13:39:03.455Z,4.07
2022-12-27T13:41:32.653Z,4.18
2022-12-27T13:44:02.073Z,3.70
2022-12-27T13:46:42.827Z,3.40
2022-12-27T13:49:09.507Z,3.63
2022-12-27T13:51:44.180Z,3.55
2022-12-27T13:54:28.901Z,4.25
2022-12-27T13:57:04.498Z,3.65
2022-12-27T13:59:43.744Z,3.95
2022-12-27T14:02:19.182Z,4.05
2022-12-27T14:05:00.942Z,3.95
2022-12-27T14:07:46.186Z,3.40
2022-12-27T14:10:18.774Z,4.53
2022-12-27T14:12:55.036Z,4.20
2022-12-27T14:15:41.738Z,4.15
2022-12-27T14:18:10.593Z,3.80
2022-12-27T14:20:46.187Z,3.47
2022-12-27T14:23:18.378Z,3.95
2022-12-27T14:25:44.774Z,3.53
2022-12-27T14:28:21.774Z,3.88
2022-12-27T14:31:07.508Z,4.00
2022-12-27T14:33:33.926Z,3.80
2022-12-27T14:36:16.485Z,4.03
2022-12-27T14:38:57.939Z,4.22
2022-12-27T14:41:30.280Z,4.10
2022-12-27T14:44:19.902Z,4.13
2022-12-27T14:46:58.501Z,4.13
2022-12-27T14:49:43.408Z,3.85
2022-12-27T14:52:28.208Z,3.92
2022-12-27T14:55:00.944Z,4.15
2022-12-27T14:57:33.189Z,3.95
2022-12-27T15:00:12.010Z,3.72
2022-12-27T15:02:44.726Z,4.10
2022-12-27T15:05:16.963Z,4.25
2022-12-27T15:08:01.699Z,4.55
2022-12-27T15:10:47.047Z,4.13
2022-12-27T15:13:13.355Z,4.30
2022-12-27T15:15:45.958Z,4.35
2022-12-27T15:18:29.257Z,4.05
2022-12-27T15:21:02.538Z,4.00
2022-12-27T15:23:43.901Z,5.28
2022-12-27T15:26:28.966Z,4.43
2022-12-27T15:29:04.089Z,3.63
2022-12-27T15:31:45.537Z,3.75
2022-12-27T15:34:23.686Z,3.58
2022-12-27T15:36:50.783Z,3.88
2022-12-27T15:39:43.629Z,4.07
2022-12-27T15:42:18.909Z,3.83
2022-12-27T15:44:50.157Z,3.85
2022-12-27T15:47:37.618Z,3.40
2022-12-27T15:50:03.986Z,4.00
2022-12-27T15:52:57.813Z,4.20
2022-12-27T15:55:42.828Z,4.20
2022-12-27T15:58:14.980Z,4.43
2022-12-27T16:00:42.925Z,3.65
2022-12-27T16:03:27.828Z,3.63
2022-12-27T16:05:54.475Z,3.75
2022-12-27T16:08:31.476Z,4.00
2022-12-27T16:10:58.383Z,3.95
2022-12-27T16:13:39.362Z,4.38
2022-12-27T16:16:28.891Z,3.85
2022-12-27T16:19:09.544Z,3.83
2022-12-27T16:21:44.137Z,3.80
2022-12-27T16:24:12.867Z,4.20
2022-12-27T16:26:46.567Z,3.85
2022-12-27T16:29:14.859Z,3.63
2022-12-27T16:31:50.950Z,4.32
2022-12-27T16:34:32.502Z,3.53
2022-12-27T16:36:59.875Z,3.70
2022-12-27T16:39:32.491Z,3.80
2022-12-27T16:41:58.925Z,3.67
2022-12-27T16:44:25.363Z,3.83
2022-12-27T16:46:51.735Z,4.35
2022-12-27T16:49:37.087Z,4.18
2022-12-27T16:52:22.183Z,3.65
2022-12-27T16:55:00.197Z,3.55
2022-12-27T16:57:26.498Z,3.22
2022-12-27T17:00:05.390Z,3.55
2022-12-27T17:02:32.266Z,2.90
2022-12-27T17:05:02.314Z,3.40
2022-12-27T17:07:49.950Z,3.43
2022-12-27T17:10:25.151Z,3.60
2022-12-27T17:12:57.038Z,3.90
2022-12-27T17:15:24.200Z,3.45
2022-12-27T17:17:53.462Z,3.90
2022-12-27T17:20:21.249Z,3.75
2022-12-27T17:22:48.256Z,3.47
2022-12-27T17:25:22.638Z,3.50
2022-12-27T17:27:56.803Z,4.22
2022-12-27T17:30:32.742Z,3.63
2022-12-27T17:33:14.658Z,3.75
2022-12-27T17:35:44.150Z,3.35
2022-12-27T17:38:33.563Z,3.72
2022-12-27T17:41:09.134Z,3.47
2022-12-27T17:44:17.535Z,5.95
2022-12-27T17:46:55.766Z,4.47
2022-12-27T17:49:26.934Z,3.33
2022-12-27T17:52:12.275Z,3.58
2022-12-27T17:54:57.698Z,4.60
2022-12-27T17:57:42.822Z,4.00
2022-12-27T18:00:21.828Z,3.67
2022-12-27T18:02:48.816Z,2.92
2022-12-27T18:05:15.452Z,9.35
2022-12-27T18:07:42.448Z,3.50
2022-12-27T18:10:36.552Z,3.25
2022-12-27T18:13:06.888Z,3.58
2022-12-27T18:15:35.353Z,3.60
2022-12-27T18:18:03.984Z,4.45
2022-12-27T18:20:31.627Z,3.63
2022-12-27T18:23:01.015Z,3.55
2022-12-27T18:25:31.154Z,3.53
2022-12-27T18:28:02.774Z,3.72
2022-12-27T18:30:31.337Z,3.30
2022-12-27T18:32:58.039Z,3.38
2022-12-27T18:35:27.629Z,3.08
2022-12-27T18:37:54.562Z,3.60
2022-12-27T18:40:23.179Z,3.13
2022-12-27T18:42:51.489Z,3.15
2022-12-27T18:45:23.140Z,2.92
2022-12-27T18:47:51.267Z,3.17
2022-12-27T18:50:21.750Z,3.08
2022-12-27T18:52:53.092Z,3.05
2022-12-27T18:55:26.798Z,3.50
2022-12-27T18:58:06.808Z,3.38
2022-12-27T19:00:46.032Z,3.95
2022-12-27T19:03:13.833Z,3.95
2022-12-27T19:05:40.345Z,3.80
2022-12-27T19:08:10.580Z,3.95
2022-12-27T19:10:41.369Z,4.80
2022-12-27T19:13:17.344Z,3.13
2022-12-27T19:15:44.103Z,3.25
2022-12-27T19:18:22.220Z,3.05
2022-12-27T19:20:56.701Z,3.92
2022-12-27T19:23:34.147Z,3.55
2022-12-27T19:26:04.722Z,3.88
2022-12-27T19:28:31.528Z,3.85
2022-12-27T19:31:17.491Z,3.97
2022-12-27T19:33:46.727Z,3.15
2022-12-27T19:36:13.770Z,3.35
2022-12-27T19:38:47.462Z,2.80
2022-12-27T19:41:15.499Z,3.58
2022-12-27T19:43:43.432Z,3.10
2022-12-27T19:46:10.541Z,3.60
2022-12-27T19:48:37.124Z,3.13
2022-12-27T19:51:03.570Z,3.15
2022-12-27T19:53:55.417Z,3.03
2022-12-27T19:56:27.065Z,3.38
2022-12-27T19:58:53.407Z,2.92
2022-12-27T20:01:19.850Z,3.50
2022-12-27T20:03:46.178Z,3.00
2022-12-27T20:06:22.954Z,3.30
2022-12-27T20:08:54.603Z,3.20
2022-12-27T20:11:22.479Z,3.08
2022-12-27T20:13:49.265Z,3.50
2022-12-27T20:16:17.068Z,7.57
2022-12-27T20:18:43.744Z,3.55
2022-12-27T20:21:15.439Z,3.30
2022-12-27T20:23:42.023Z,3.08
2022-12-27T20:26:08.460Z,3.10
2022-12-27T20:28:34.805Z,8.60
2022-12-27T20:31:05.820Z,3.28
2022-12-27T20:33:36.202Z,2.90
2022-12-27T20:36:03.240Z,3.50
2022-12-27T20:38:30.791Z,3.38
2022-12-27T20:40:58.828Z,3.47
2022-12-27T20:43:25.158Z,3.42
2022-12-27T20:45:53.767Z,3.38
2022-12-27T20:48:20.460Z,2.80
2022-12-27T20:50:47.855Z,3.58
2022-12-27T20:53:17.283Z,3.47
2022-12-27T20:55:44.503Z,3.30
2022-12-27T20:58:11.680Z,3.25
2022-12-27T21:00:41.749Z,3.17
2022-12-27T21:03:14.278Z,3.28
2022-12-27T21:05:40.870Z,3.33
2022-12-27T21:08:08.577Z,3.50
2022-12-27T21:10:35.702Z,3.35
2022-12-27T21:13:03.840Z,3.83
2022-12-27T21:15:31.445Z,3.35
2022-12-27T21:17:57.833Z,2.88
2022-12-27T21:20:24.948Z,3.47
2022-12-27T21:22:51.742Z,4.13
2022-12-27T21:25:18.900Z,3.20
2022-12-27T21:27:45.531Z,3.45
2022-12-27T21:30:14.038Z,3.45
2022-12-27T21:32:40.586Z,4.57
2022-12-27T21:35:07.445Z,5.55
2022-12-27T21:37:35.427Z,3.13
2022-12-27T21:40:02.203Z,3.00
2022-12-27T21:42:29.517Z,3.20
2022-12-27T21:44:59.962Z,3.40
2022-12-27T21:47:33.130Z,3.15
2022-12-27T21:49:59.621Z,3.00
2022-12-27T21:52:27.151Z,3.30
2022-12-27T21:54:54.309Z,2.78
2022-12-27T21:57:20.862Z,3.30
2022-12-27T21:59:47.616Z,3.70
2022-12-27T22:02:14.575Z,3.50
2022-12-27T22:04:42.222Z,3.50
2022-12-27T22:07:08.891Z,3.17
2022-12-27T22:09:37.138Z,4.38
2022-12-27T22:12:04.517Z,2.95
2022-12-27T22:14:36.693Z,3.08
2022-12-27T22:17:04.023Z,2.90
2022-12-27T22:19:32.898Z,2.90
2022-12-27T22:22:00.818Z,3.10
2022-12-27T22:24:27.438Z,2.75
2022-12-27T22:26:53.959Z,3.67
2022-12-27T22:29:21.906Z,3.00
2022-12-27T22:31:48.622Z,3.05
2022-12-27T22:34:15.649Z,3.17
2022-12-27T22:36:42.263Z,2.95
2022-12-27T22:39:08.786Z,3.10
2022-12-27T22:41:36.245Z,2.97
2022-12-27T22:44:04.871Z,4.40
2022-12-27T22:46:58.601Z,3.58
2022-12-27T22:49:18.515Z,3.83
2022-12-27T22:51:44.953Z,3.47
2022-12-27T22:54:11.627Z,3.20
2022-12-27T22:56:39.719Z,3.78
2022-12-27T22:59:08.307Z,3.45
2022-12-27T23:01:35.063Z,4.40
2022-12-27T23:04:02.558Z,3.85
2022-12-27T23:06:29.208Z,4.10
2022-12-27T23:08:55.662Z,3.65
2022-12-27T23:11:32.564Z,4.63
2022-12-27T23:14:00.329Z,4.03
2022-12-27T23:16:27.050Z,4.95
2022-12-27T23:18:53.868Z,4.18
2022-12-27T23:21:24.773Z,4.65
2022-12-27T23:23:51.584Z,3.30
2022-12-27T23:26:19.440Z,4.50
2022-12-27T23:28:46.371Z,4.78
2022-12-27T23:31:13.074Z,4.25
2022-12-27T23:33:40.386Z,4.03
2022-12-27T23:36:07.383Z,4.22
2022-12-27T23:38:34.207Z,3.92
2022-12-27T23:41:01.704Z,4.25
2022-12-27T23:46:20.548Z,4.47
2022-12-27T23:48:47.282Z,4.07
2022-12-27T23:51:14.014Z,4.38
2022-12-27T23:53:40.685Z,4.32
2022-12-27T23:56:15.256Z,3.97
2022-12-27T23:58:42.006Z,4.45
